Marfa's Hourly Summary for Saturday, August 29, 2026
Hour Temp
(f)
RH
(%)
Solar Rad.
(MJ/m2)
Rainfall
(in)
Wind
(mph)
Battery
(volts)
8/29/2026 12:00 AM 82 38 0 0 6.19 0
8/29/2026 1:00 AM 80 41 0 0 5.28 0
8/29/2026 2:00 AM 78 44 0 0 6.14 0
8/29/2026 3:00 AM 76 48 0 0 5.18 0
8/29/2026 4:00 AM 72 53 0 0 2.12 0
8/29/2026 5:00 AM 69 57 0 0 0.54 0
8/29/2026 6:00 AM 68 60 0 0 2.59 0
8/29/2026 7:00 AM 67 61 0 0 2.87 0
8/29/2026 8:00 AM 66 61 0.04 0 3.84 0
8/29/2026 9:00 AM 72 53 0.17 0 5.17 0
8/29/2026 10:00 AM 80 44 0.31 0 1.15 0
8/29/2026 11:00 AM 84 37 0.46 0 5.91 0
8/29/2026 12:00 PM 87 32 0.6 0 8.52 0
8/29/2026 1:00 PM 89 28 0.7 0 7.88 0
8/29/2026 2:00 PM 90 29 0.79 0 4.03 0
8/29/2026 3:00 PM 92 24 0.65 0 6.42 0
8/29/2026 4:00 PM 93 24 0.77 0 5 0
8/29/2026 5:00 PM 94 21 0.64 0 5.99 0
8/29/2026 6:00 PM 92 22 0.44 0 6.65 0
8/29/2026 7:00 PM 90 22 0.25 0 7.91 0
8/29/2026 8:00 PM 87 23 0.06 0 7.56 0
8/29/2026 9:00 PM 84 26 0 0 4.47 0
8/29/2026 10:00 PM 83 38 0 0 9.62 0
8/29/2026 11:00 PM 82 40 0 0 11.02 0
Data Summary 81 38 5.88 0.00 5.50 0.00